D/T METAR WX W/DIR W/SPE G/SPE TEMP DEWP
5/06/20 06:50 EGJB 050550Z 29015KT 9999 VCSH FEW005 SCT049 12/11 Q1001 VCSH WNW (290°) 17.3mph 12°C 11°C
5/06/20 05:50 EGJB 050450Z 30012KT 9999 VCSH SCT007 SCT013 13/12 Q1001 VCSH WNW (300°) 13.8mph 13°C 12°C
5/06/20 04:50 EGJB 050350Z 28012KT 9999 SCT005 SCT012 13/12 Q1000 W (280°) 13.8mph 13°C 12°C
5/06/20 03:50 EGJB 050250Z 28013KT 9999 FEW005 SCT012 12/12 Q1001 W (280°) 15.0mph 12°C 12°C
5/06/20 02:50 EGJB 050150Z 27012KT 9999 BKN006 12/12 Q1001 W (270°) 13.8mph 12°C 12°C
5/06/20 01:50 EGJB 050050Z 26012KT 9999 -SHRA BKN005 12/12 Q1002 -SHRA W (260°) 13.8mph 12°C 12°C
5/06/20 00:50 EGJB 042350Z 26011KT 9999 BKN006 12/11 Q1003 W (260°) 12.7mph 12°C 11°C
4/06/20 23:50 EGJB 042250Z 27009KT 9999 -SHRA FEW005 SCT012 BKN030 12/11 Q1004 -SHRA W (270°) 10.4mph 12°C 11°C
4/06/20 22:50 EGJB 042150Z 29012KT 9999 -SHRA SCT012 SCT030 12/10 Q1004 -SHRA WNW (290°) 13.8mph 12°C 10°C
4/06/20 21:50 EGJB 042050Z 30010KT 9999 FEW017 SCT032 12/09 Q1005 WNW (300°) 11.5mph 12°C 9°C
4/06/20 20:50 EGJB 041950Z 29013KT 9999 FEW018 SCT030 12/09 Q1004 WNW (290°) 15.0mph 12°C 9°C
4/06/20 19:50 EGJB 041850Z 30013KT 9999 FEW020 13/08 Q1005 WNW (300°) 15.0mph 13°C 8°C
4/06/20 19:20 EGJB 041820Z 29013KT 9999 FEW020 13/08 Q1005 WNW (290°) 15.0mph 13°C 8°C
4/06/20 18:50 EGJB 041750Z 30013KT 9999 FEW022 13/07 Q1005 WNW (300°) 15.0mph 13°C 7°C
4/06/20 18:20 EGJB 041720Z 29014KT 9999 FEW022 13/08 Q1005 WNW (290°) 16.1mph 13°C 8°C
4/06/20 17:50 EGJB 041650Z 29016KT 270V330 9999 FEW022 13/08 Q1005 WNW (290°) 18.4mph 13°C 8°C
4/06/20 17:20 EGJB 041620Z 30014KT 9999 FEW022 14/08 Q1005 WNW (300°) 16.1mph 14°C 8°C
4/06/20 16:50 EGJB 041550Z 29009KT 9999 FEW020 14/08 Q1005 WNW (290°) 10.4mph 14°C 8°C
4/06/20 16:20 EGJB 041520Z 29011KT 9999 FEW020 13/08 Q1005 WNW (290°) 12.7mph 13°C 8°C
4/06/20 15:50 EGJB 041450Z 31009KT 9999 FEW020 14/08 Q1005 NW (310°) 10.4mph 14°C 8°C
4/06/20 15:20 EGJB 041420Z 31010KT 9999 FEW020 14/08 Q1006 NW (310°) 11.5mph 14°C 8°C
4/06/20 14:50 EGJB 041350Z 33010KT 300V360 9999 FEW018 14/08 Q1006 NNW (330°) 11.5mph 14°C 8°C
4/06/20 14:20 EGJB 041320Z 33010KT 9999 FEW018 13/07 Q1006 NNW (330°) 11.5mph 13°C 7°C
4/06/20 13:50 EGJB 041250Z 33012KT 9999 FEW016 13/08 Q1006 NNW (330°) 13.8mph 13°C 8°C
4/06/20 13:20 EGJB 041220Z 34012KT 9999 SCT016 13/08 Q1006 NNW (340°) 13.8mph 13°C 8°C
4/06/20 12:50 EGJB 041150Z 34013KT 9999 SCT016 13/08 Q1006 NNW (340°) 15.0mph 13°C 8°C
4/06/20 12:20 EGJB 041120Z 34013KT 9999 SCT015 13/08 Q1006 NNW (340°) 15.0mph 13°C 8°C
4/06/20 11:50 EGJB 041050Z 34012KT 9999 SCT015 13/08 Q1006 NNW (340°) 13.8mph 13°C 8°C
4/06/20 11:20 EGJB 041020Z 35013KT 9999 SCT015 13/08 Q1006 N (350°) 15.0mph 13°C 8°C
4/06/20 10:50 EGJB 040950Z 35012KT 9999 BKN015 12/09 Q1006 N (350°) 13.8mph 12°C 9°C
4/06/20 10:20 EGJB 040920Z 35013KT 9999 BKN015 12/09 Q1006 N (350°) 15.0mph 12°C 9°C
4/06/20 09:50 EGJB 040850Z 35010KT 320V020 9999 BKN015 12/08 Q1006 N (350°) 11.5mph 12°C 8°C
4/06/20 09:20 EGJB 040820Z 36012KT 9999 BKN013 12/08 Q1006 N (360°) 13.8mph 12°C 8°C
4/06/20 08:50 EGJB 040750Z 36011KT 9999 BKN013 11/09 Q1006 N (360°) 12.7mph 11°C 9°C
4/06/20 07:50 EGJB 040650Z 36012KT 9999 BKN011 11/10 Q1005 N (360°) 13.8mph 11°C 10°C
4/06/20 06:50 EGJB 040550Z 01010KT 9999 BKN009 11/10 Q1005 N (10°) 11.5mph 11°C 10°C
4/06/20 05:50 EGJB 040450Z 01012KT 9999 FEW005 BKN009 11/10 Q1005 N (10°) 13.8mph 11°C 10°C
4/06/20 04:50 EGJB 040350Z 02014KT 9999 -RA SCT005 BKN009 11/11 Q1005 -RA NNE (20°) 16.1mph 11°C 11°C
4/06/20 03:50 EGJB 040250Z 04009KT 9999 -RA SCT005 BKN009 11/11 Q1005 -RA NE (40°) 10.4mph 11°C 11°C
4/06/20 02:50 EGJB 040150Z 04009KT 360V070 9999 -RA SCT006 BKN016 12/11 Q1005 -RA NE (40°) 10.4mph 12°C 11°C
4/06/20 01:50 EGJB 040050Z 03011KT 9999 -RA FEW009 BKN017 12/11 Q1005 -RA NNE (30°) 12.7mph 12°C 11°C
4/06/20 00:50 EGJB 032350Z 03009KT 350V080 9999 -RA SCT017 12/11 Q1005 -RA NNE (30°) 10.4mph 12°C 11°C
3/06/20 23:50 EGJB 032250Z 02010KT 9999 -RA SCT017 13/12 Q1005 -RA NNE (20°) 11.5mph 13°C 12°C
3/06/20 22:50 EGJB 032150Z 02010KT 9999 FEW045 13/12 Q1006 NNE (20°) 11.5mph 13°C 12°C
3/06/20 21:50 EGJB 032050Z 01008KT 9999 -RA FEW045 13/12 Q1006 -RA N (10°) 9.2mph 13°C 12°C
3/06/20 20:50 EGJB 031950Z 03005KT 9999 -RA FEW048 13/12 Q1005 -RA NNE (30°) 5.8mph 13°C 12°C
3/06/20 19:50 EGJB 031850Z 04005KT 010V070 9999 RA FEW048 13/12 Q1005 RA NE (40°) 5.8mph 13°C 12°C
3/06/20 19:20 EGJB 031820Z 04005KT 9999 -RA FEW048 13/12 Q1005 RERA -RA NE (40°) 5.8mph 13°C 12°C
3/06/20 18:50 EGJB 031750Z 03005KT 340V060 9999 RA FEW048 13/13 Q1005 RA NNE (30°) 5.8mph 13°C 13°C
3/06/20 18:20 EGJB 031720Z 02005KT 9999 -RA FEW048 14/13 Q1005 -RA NNE (20°) 5.8mph 14°C 13°C
3/06/20 17:50 EGJB 031650Z 35006KT 9999 -RA FEW048 14/12 Q1005 -RA N (350°) 6.9mph 14°C 12°C
3/06/20 17:20 EGJB 031620Z 35008KT 9999 FEW048 14/12 Q1006 N (350°) 9.2mph 14°C 12°C
3/06/20 16:20 EGJB 031520Z 34007KT 300V020 9999 VCSH SCT048 15/12 Q1006 VCSH NNW (340°) 8.1mph 15°C 12°C
3/06/20 15:50 EGJB 031450Z 02011KT 9999 VCSH SCT045 18/11 Q1006 VCSH NNE (20°) 12.7mph 18°C 11°C
3/06/20 15:20 EGJB 031420Z 01013KT CAVOK 19/11 Q1006 N (10°) 15.0mph 19°C 11°C
3/06/20 14:20 EGJB 031320Z 02010KT CAVOK 18/12 Q1006 NNE (20°) 11.5mph 18°C 12°C
3/06/20 13:50 EGJB 031250Z 01011KT 350V070 CAVOK 18/11 Q1007 N (10°) 12.7mph 18°C 11°C
3/06/20 13:20 EGJB 031220Z 01010KT CAVOK 18/12 Q1007 N (10°) 11.5mph 18°C 12°C
3/06/20 12:50 EGJB 031150Z 02010KT CAVOK 17/12 Q1007 NNE (20°) 11.5mph 17°C 12°C
3/06/20 12:20 EGJB 031120Z 01007KT 330V040 CAVOK 18/12 Q1007 N (10°) 8.1mph 18°C 12°C
3/06/20 11:50 EGJB 031050Z 36007KT 330V030 CAVOK 18/12 Q1007 N (360°) 8.1mph 18°C 12°C
3/06/20 11:20 EGJB 031020Z 34007KT CAVOK 17/12 Q1008 NNW (340°) 8.1mph 17°C 12°C
3/06/20 10:50 EGJB 030950Z 34009KT 300V010 CAVOK 18/12 Q1008 NNW (340°) 10.4mph 18°C 12°C
3/06/20 10:20 EGJB 030920Z 33007KT CAVOK 18/11 Q1008 NNW (330°) 8.1mph 18°C 11°C
3/06/20 09:50 EGJB 030850Z 34007KT CAVOK 18/11 Q1008 NNW (340°) 8.1mph 18°C 11°C
3/06/20 09:20 EGJB 030820Z 35006KT CAVOK 17/11 Q1008 N (350°) 6.9mph 17°C 11°C
3/06/20 08:50 EGJB 030750Z 33007KT CAVOK 17/12 Q1009 NNW (330°) 8.1mph 17°C 12°C
3/06/20 07:50 EGJB 030650Z 32003KT CAVOK 16/11 Q1009 NW (320°) 3.5mph 16°C 11°C
3/06/20 06:50 EGJB 030550Z 31003KT CAVOK 15/12 Q1009 NW (310°) 3.5mph 15°C 12°C
3/06/20 05:50 EGJB 030450Z 31005KT CAVOK 14/12 Q1010 NW (310°) 5.8mph 14°C 12°C
3/06/20 04:50 EGJB 030350Z 32004KT CAVOK 14/11 Q1010 NW (320°) 4.6mph 14°C 11°C
3/06/20 03:50 EGJB 030250Z 31005KT CAVOK 14/13 Q1011 NW (310°) 5.8mph 14°C 13°C
3/06/20 02:50 EGJB 030150Z 36004KT CAVOK 15/11 Q1012 N (360°) 4.6mph 15°C 11°C
3/06/20 01:50 EGJB 030050Z 33005KT CAVOK 14/12 Q1013 NNW (330°) 5.8mph 14°C 12°C
3/06/20 00:50 EGJB 022350Z 31006KT CAVOK 14/12 Q1014 NW (310°) 6.9mph 14°C 12°C
2/06/20 23:50 EGJB 022250Z 30007KT CAVOK 15/10 Q1014 WNW (300°) 8.1mph 15°C 10°C
2/06/20 22:50 EGJB 022150Z 30007KT CAVOK 15/11 Q1015 WNW (300°) 8.1mph 15°C 11°C
2/06/20 21:50 EGJB 022050Z 31007KT CAVOK 15/10 Q1016 NW (310°) 8.1mph 15°C 10°C
2/06/20 20:50 EGJB 021950Z 31008KT CAVOK 16/10 Q1016 NW (310°) 9.2mph 16°C 10°C
2/06/20 19:50 EGJB 021850Z 32008KT CAVOK 17/10 Q1016 NW (320°) 9.2mph 17°C 10°C
2/06/20 19:20 EGJB 021820Z 33008KT CAVOK 18/10 Q1016 NNW (330°) 9.2mph 18°C 10°C
2/06/20 18:50 EGJB 021750Z 33007KT CAVOK 19/10 Q1016 NNW (330°) 8.1mph 19°C 10°C
2/06/20 18:20 EGJB 021720Z VRB03KT CAVOK 20/12 Q1017 N (0°) 3.5mph 20°C 12°C
2/06/20 17:20 EGJB 021620Z 35006KT CAVOK 19/10 Q1017 N (350°) 6.9mph 19°C 10°C
2/06/20 16:50 EGJB 021550Z 34008KT CAVOK 19/11 Q1017 NNW (340°) 9.2mph 19°C 11°C
2/06/20 16:20 EGJB 021520Z 02009KT 330V050 CAVOK 20/11 Q1017 NNE (20°) 10.4mph 20°C 11°C
2/06/20 15:50 EGJB 021450Z 04009KT 010V070 CAVOK 21/08 Q1017 NE (40°) 10.4mph 21°C 8°C
2/06/20 15:20 EGJB 021420Z 04009KT 010V070 CAVOK 21/07 Q1018 NE (40°) 10.4mph 21°C 7°C
2/06/20 14:50 EGJB 021350Z 04011KT CAVOK 21/07 Q1018 NE (40°) 12.7mph 21°C 7°C
2/06/20 14:20 EGJB 021320Z 05010KT CAVOK 20/07 Q1018 NE (50°) 11.5mph 20°C 7°C
2/06/20 13:50 EGJB 021250Z 04011KT 010V070 CAVOK 20/07 Q1018 NE (40°) 12.7mph 20°C 7°C
2/06/20 13:20 EGJB 021220Z 03010KT CAVOK 20/08 Q1019 NNE (30°) 11.5mph 20°C 8°C
2/06/20 12:50 EGJB 021150Z 04010KT CAVOK 20/09 Q1019 NE (40°) 11.5mph 20°C 9°C
2/06/20 12:20 EGJB 021120Z 03009KT CAVOK 20/09 Q1019 NNE (30°) 10.4mph 20°C 9°C
2/06/20 11:50 EGJB 021050Z 02011KT CAVOK 19/09 Q1019 NNE (20°) 12.7mph 19°C 9°C
2/06/20 11:20 EGJB 021020Z 04010KT 360V070 CAVOK 19/09 Q1019 NE (40°) 11.5mph 19°C 9°C